createdAt,value
2024-03-18T00:03:07.125Z,99096.20
2024-03-18T00:06:00.533Z,99093.00
2024-03-18T00:08:53.249Z,99096.00
2024-03-18T00:11:45.888Z,99090.00
2024-03-18T00:14:39.191Z,99090.00
2024-03-18T00:17:31.977Z,99092.00
2024-03-18T00:20:25.805Z,99090.00
2024-03-18T00:23:18.842Z,99088.60
2024-03-18T00:26:11.728Z,99081.80
2024-03-18T00:29:04.995Z,99074.20
2024-03-18T00:31:58.047Z,99077.80
2024-03-18T00:34:51.763Z,99079.40
2024-03-18T00:37:44.914Z,99078.20
2024-03-18T00:40:37.651Z,99071.60
2024-03-18T00:43:30.601Z,99070.80
2024-03-18T00:46:23.854Z,99065.40
2024-03-18T00:49:17.332Z,99063.40
2024-03-18T00:52:10.271Z,99057.80
2024-03-18T00:55:05.171Z,99054.00
2024-03-18T00:57:58.819Z,99055.40
2024-03-18T01:00:51.629Z,99055.60
2024-03-18T01:03:44.869Z,99063.00
2024-03-18T01:06:37.957Z,99056.80
2024-03-18T01:09:31.160Z,99053.40
2024-03-18T01:12:24.321Z,99047.80
2024-03-18T01:15:17.833Z,99051.00
2024-03-18T01:18:10.932Z,99049.60
2024-03-18T01:21:03.551Z,99044.20
2024-03-18T01:23:56.302Z,99044.60
2024-03-18T01:26:49.224Z,99040.20
2024-03-18T01:29:43.002Z,99038.40
2024-03-18T01:32:35.950Z,99035.40
2024-03-18T01:35:30.730Z,99031.40
2024-03-18T01:38:23.723Z,99031.00
2024-03-18T01:41:16.713Z,99027.20
2024-03-18T01:44:11.135Z,99028.20
2024-03-18T01:47:03.830Z,99029.00
2024-03-18T01:49:57.955Z,99028.20
2024-03-18T01:52:50.977Z,99027.60
2024-03-18T01:55:46.827Z,99036.20
2024-03-18T01:58:42.819Z,99033.40
2024-03-18T02:01:35.781Z,99046.60
2024-03-18T02:04:29.137Z,99060.20
2024-03-18T02:07:31.176Z,99072.80
2024-03-18T02:10:24.684Z,99069.60
2024-03-18T02:13:18.148Z,99071.80
2024-03-18T02:16:11.965Z,99067.40
2024-03-18T02:19:07.014Z,99068.60
2024-03-18T02:22:07.954Z,99064.80
2024-03-18T02:25:12.764Z,99057.80
2024-03-18T02:28:10.875Z,99056.60
2024-03-18T02:31:13.509Z,99057.00
2024-03-18T02:34:09.026Z,99052.00
2024-03-18T02:37:11.533Z,99055.20
2024-03-18T02:40:14.030Z,99053.80
2024-03-18T02:43:08.893Z,99057.00
2024-03-18T02:46:14.081Z,99054.80
2024-03-18T02:49:13.108Z,99054.20
2024-03-18T02:52:14.936Z,99056.80
2024-03-18T02:55:12.333Z,99049.20
2024-03-18T02:58:09.630Z,99050.60
2024-03-18T03:01:03.289Z,99040.20
2024-03-18T03:04:01.169Z,99040.40
2024-03-18T03:07:00.220Z,99043.20
2024-03-18T03:10:07.409Z,99054.40
2024-03-18T03:13:01.432Z,99051.80
2024-03-18T03:16:01.854Z,99047.60
2024-03-18T03:19:01.036Z,99047.40
2024-03-18T03:22:10.641Z,99043.20
2024-03-18T03:25:08.848Z,99044.60
2024-03-18T03:28:10.443Z,99047.40
2024-03-18T03:31:17.081Z,99048.20
2024-03-18T03:34:13.484Z,99050.60
2024-03-18T03:37:08.554Z,99047.80
2024-03-18T03:40:04.669Z,99044.20
2024-03-18T03:43:01.535Z,99048.80
2024-03-18T03:46:05.913Z,99047.60
2024-03-18T03:49:01.924Z,99041.80
2024-03-18T03:51:57.899Z,99043.40
2024-03-18T03:54:51.477Z,99047.20
2024-03-18T03:57:47.135Z,99034.20
2024-03-18T04:00:48.087Z,99034.40
2024-03-18T04:03:49.100Z,99037.60
2024-03-18T04:06:49.141Z,99038.80
2024-03-18T04:09:49.207Z,99044.80
2024-03-18T04:12:49.772Z,99043.60
2024-03-18T04:15:48.555Z,99035.20
2024-03-18T04:18:46.048Z,99036.40
2024-03-18T04:21:42.665Z,99036.80
2024-03-18T04:24:39.244Z,99039.60
2024-03-18T04:27:38.695Z,99046.20
2024-03-18T04:30:43.217Z,99050.80
2024-03-18T04:33:42.220Z,99053.40
2024-03-18T04:36:41.292Z,99048.00
2024-03-18T04:39:36.963Z,99050.20
2024-03-18T04:42:35.312Z,99046.40
2024-03-18T04:45:41.904Z,99046.40
2024-03-18T04:48:38.127Z,99045.60
2024-03-18T04:51:35.713Z,99041.80
2024-03-18T04:54:30.049Z,99044.80
2024-03-18T04:57:30.979Z,99042.80
2024-03-18T05:00:29.110Z,99044.40
2024-03-18T05:03:24.072Z,99045.40
2024-03-18T05:06:20.714Z,99047.80
2024-03-18T05:09:19.588Z,99048.20
2024-03-18T05:12:16.148Z,99051.60
2024-03-18T05:15:16.166Z,99048.80
2024-03-18T05:18:12.570Z,99051.00
2024-03-18T05:21:15.539Z,99049.80
2024-03-18T05:24:11.681Z,99048.40
2024-03-18T05:27:10.582Z,99046.60
2024-03-18T05:30:08.796Z,99051.00
2024-03-18T05:33:09.282Z,99052.20
2024-03-18T05:36:10.389Z,99056.00
2024-03-18T05:39:04.271Z,99061.00
2024-03-18T05:41:57.284Z,99061.80
2024-03-18T05:44:56.531Z,99058.80
2024-03-18T05:47:50.079Z,99060.40
2024-03-18T05:50:48.161Z,99064.60
2024-03-18T05:53:42.346Z,99062.00
2024-03-18T05:56:41.358Z,99063.60
2024-03-18T05:59:41.091Z,99062.80
2024-03-18T06:02:35.523Z,99065.80
2024-03-18T06:05:28.934Z,99067.00
2024-03-18T06:08:22.170Z,99073.20
2024-03-18T06:11:15.464Z,99070.60
2024-03-18T06:14:11.397Z,99070.20
2024-03-18T06:17:05.862Z,99076.20
2024-03-18T06:20:00.064Z,99074.60
2024-03-18T06:22:54.543Z,99073.20
2024-03-18T06:25:58.849Z,99077.40
2024-03-18T06:28:52.109Z,99071.60
2024-03-18T06:31:46.016Z,99073.40
2024-03-18T06:34:42.356Z,99075.20
2024-03-18T06:37:40.572Z,99069.60
2024-03-18T06:40:33.559Z,99072.20
2024-03-18T06:43:26.350Z,99067.20
2024-03-18T06:46:19.097Z,99067.80
2024-03-18T06:49:12.554Z,99076.00
2024-03-18T06:52:07.740Z,99075.80
2024-03-18T06:55:01.385Z,99080.40
2024-03-18T06:57:54.732Z,99081.60
2024-03-18T07:00:47.984Z,99076.60
2024-03-18T07:03:41.611Z,99073.80
2024-03-18T07:06:34.302Z,99073.80
2024-03-18T07:09:26.955Z,99067.60
2024-03-18T07:12:19.702Z,99075.00
2024-03-18T07:15:17.338Z,99071.60
2024-03-18T07:18:10.470Z,99072.60
2024-03-18T07:21:03.328Z,99074.40
2024-03-18T07:23:56.351Z,99076.20
2024-03-18T07:26:49.237Z,99078.00
2024-03-18T07:29:41.840Z,99081.80
2024-03-18T07:32:35.096Z,99085.80
2024-03-18T07:35:27.742Z,99084.40
2024-03-18T07:38:25.957Z,99081.60
2024-03-18T07:41:19.185Z,99070.20
2024-03-18T07:44:12.190Z,99073.00
2024-03-18T07:47:05.954Z,99080.60
2024-03-18T07:49:59.060Z,99083.20
2024-03-18T07:52:51.711Z,99086.60
2024-03-18T07:55:44.458Z,99090.20
2024-03-18T07:58:37.072Z,99093.00
2024-03-18T08:01:30.090Z,99093.80
2024-03-18T08:04:22.869Z,99089.80
2024-03-18T08:07:16.045Z,99089.80
2024-03-18T08:10:10.739Z,99094.60
2024-03-18T08:13:03.333Z,99090.60
2024-03-18T08:16:00.317Z,99090.40
2024-03-18T08:18:53.225Z,99092.60
2024-03-18T08:21:45.988Z,99090.60
2024-03-18T08:24:39.367Z,99092.60
2024-03-18T08:27:33.484Z,99089.60
2024-03-18T08:30:26.711Z,99091.00
2024-03-18T08:33:25.641Z,99082.80
2024-03-18T08:36:22.559Z,99083.60
2024-03-18T08:39:15.315Z,99087.80
2024-03-18T08:42:08.791Z,99085.60
2024-03-18T08:45:01.548Z,99083.80
2024-03-18T08:47:54.422Z,99077.80
2024-03-18T08:50:47.452Z,99079.60
2024-03-18T08:53:44.880Z,99079.40
2024-03-18T08:56:39.235Z,99080.40
2024-03-18T08:59:32.488Z,99080.00
2024-03-18T09:02:25.608Z,99080.80
2024-03-18T09:05:19.146Z,99081.60
2024-03-18T09:08:11.910Z,99082.20
2024-03-18T09:11:05.075Z,99080.00
2024-03-18T09:13:57.446Z,99084.60
2024-03-18T09:16:50.480Z,99081.20
2024-03-18T09:19:43.365Z,99077.00
2024-03-18T09:22:36.276Z,99078.00
2024-03-18T09:25:32.865Z,99078.20
2024-03-18T09:28:26.001Z,99080.00
2024-03-18T09:31:19.167Z,99077.60
2024-03-18T09:34:11.967Z,99075.80
2024-03-18T09:37:05.226Z,99077.20
2024-03-18T09:39:58.612Z,99081.20
2024-03-18T09:42:51.865Z,99079.40
2024-03-18T09:45:45.220Z,99079.40
2024-03-18T09:48:38.556Z,99078.60
2024-03-18T09:51:36.533Z,99077.60
2024-03-18T09:54:29.234Z,99066.60
2024-03-18T09:57:27.481Z,99067.60
2024-03-18T10:00:21.788Z,99064.60
2024-03-18T10:03:21.098Z,99066.20
2024-03-18T10:06:15.689Z,99058.60
2024-03-18T10:09:08.695Z,99062.40
2024-03-18T10:12:01.576Z,99066.40
2024-03-18T10:14:54.553Z,99062.00
2024-03-18T10:17:47.718Z,99063.20
2024-03-18T10:20:40.760Z,99063.20
2024-03-18T10:23:37.586Z,99062.60
2024-03-18T10:26:33.158Z,99053.60
2024-03-18T10:29:25.985Z,99051.60
2024-03-18T10:32:28.878Z,99052.40
2024-03-18T10:35:27.525Z,99052.60
2024-03-18T10:38:26.334Z,99052.00
2024-03-18T10:41:22.475Z,99056.80
2024-03-18T10:44:21.657Z,99054.20
2024-03-18T10:47:17.336Z,99052.60
2024-03-18T10:50:17.014Z,99052.00
2024-03-18T10:53:19.795Z,99050.60
2024-03-18T10:56:11.490Z,99049.60
2024-03-18T10:59:04.750Z,99045.00
2024-03-18T11:01:57.901Z,99045.40
2024-03-18T11:04:51.211Z,99043.60
2024-03-18T11:07:47.880Z,99038.60
2024-03-18T11:10:42.270Z,99036.60
2024-03-18T11:13:39.827Z,99031.20
2024-03-18T11:16:36.390Z,99029.00
2024-03-18T11:19:31.431Z,99026.60
2024-03-18T11:22:24.312Z,99027.20
2024-03-18T11:25:23.666Z,99029.40
2024-03-18T11:28:17.170Z,99024.60
2024-03-18T11:31:12.793Z,99023.00
2024-03-18T11:34:11.194Z,99020.40
2024-03-18T11:37:06.619Z,99019.00
2024-03-18T11:40:00.243Z,99016.00
2024-03-18T11:42:53.179Z,99018.20
2024-03-18T11:45:54.003Z,99015.60
2024-03-18T11:48:47.086Z,99012.20
2024-03-18T11:51:44.608Z,99010.80
2024-03-18T11:54:41.740Z,99007.00
2024-03-18T11:57:35.575Z,99008.60
2024-03-18T12:00:28.751Z,99000.60
2024-03-18T12:03:23.428Z,98999.80
2024-03-18T12:06:16.412Z,98999.20
2024-03-18T12:09:12.925Z,98995.40
2024-03-18T12:12:09.201Z,98989.40
2024-03-18T12:15:02.867Z,98992.80
2024-03-18T12:17:55.924Z,98991.60
2024-03-18T12:20:54.150Z,98989.00
2024-03-18T12:24:04.273Z,98985.60
2024-03-18T12:27:14.475Z,98984.80
2024-03-18T12:30:20.917Z,98980.40
2024-03-18T12:33:16.708Z,98978.20
2024-03-18T12:36:14.302Z,98977.80
2024-03-18T12:39:11.074Z,98973.40
2024-03-18T12:42:04.869Z,98969.80
2024-03-18T12:44:59.077Z,98970.40
2024-03-18T12:47:53.452Z,98973.00
2024-03-18T12:50:47.552Z,98974.80
2024-03-18T12:53:40.350Z,98971.00
2024-03-18T12:56:33.499Z,98969.00
2024-03-18T12:59:26.248Z,98969.80
2024-03-18T13:02:21.059Z,98964.60
2024-03-18T13:05:15.240Z,98967.00
2024-03-18T13:08:12.361Z,98966.60
2024-03-18T13:11:07.954Z,98962.60
2024-03-18T13:14:00.902Z,98967.40
2024-03-18T13:16:57.927Z,98962.40
2024-03-18T13:19:51.953Z,98961.60
2024-03-18T13:22:44.694Z,98966.20
2024-03-18T13:25:38.667Z,98964.80
2024-03-18T13:28:31.465Z,98961.60
2024-03-18T13:31:24.259Z,98961.20
2024-03-18T13:34:18.480Z,98960.60
2024-03-18T13:37:11.573Z,98960.40
2024-03-18T13:40:05.773Z,98959.60
2024-03-18T13:42:59.041Z,98959.20
2024-03-18T13:45:56.193Z,98959.00
2024-03-18T13:48:49.472Z,98965.80
2024-03-18T13:51:42.385Z,98957.60
2024-03-18T13:54:35.509Z,98960.00
2024-03-18T13:57:28.330Z,98958.80
2024-03-18T14:00:25.918Z,98957.80
2024-03-18T14:03:18.793Z,98957.60
2024-03-18T14:06:13.158Z,98960.20
2024-03-18T14:09:08.805Z,98961.20
2024-03-18T14:12:02.408Z,98960.20
2024-03-18T14:14:55.063Z,98956.20
2024-03-18T14:17:49.418Z,98957.60
2024-03-18T14:20:42.405Z,98961.00
2024-03-18T14:23:35.454Z,98961.80
2024-03-18T14:26:28.365Z,98957.40
2024-03-18T14:29:21.988Z,98960.80
2024-03-18T14:32:16.738Z,98962.00
2024-03-18T14:35:16.059Z,98959.60
2024-03-18T14:38:09.200Z,98961.20
2024-03-18T14:41:06.414Z,98961.20
2024-03-18T14:44:00.186Z,98961.20
2024-03-18T14:46:52.813Z,98964.60
2024-03-18T14:49:45.584Z,98969.00
2024-03-18T14:52:38.150Z,98964.20
2024-03-18T14:55:31.257Z,98969.80
2024-03-18T14:58:24.915Z,98965.60
2024-03-18T15:01:20.692Z,98966.00
2024-03-18T15:04:13.567Z,98963.80
2024-03-18T15:07:07.356Z,98969.60
2024-03-18T15:10:00.379Z,98971.40
2024-03-18T15:12:53.687Z,98974.60
2024-03-18T15:15:46.659Z,98977.00
2024-03-18T15:18:40.071Z,98972.80
2024-03-18T15:21:33.023Z,98974.20
2024-03-18T15:24:39.812Z,98968.80
2024-03-18T15:27:48.568Z,98975.00
2024-03-18T15:30:43.944Z,98975.60
2024-03-18T15:33:36.904Z,98980.60
2024-03-18T15:36:30.016Z,98978.60
2024-03-18T15:39:23.668Z,98983.00
2024-03-18T15:42:16.687Z,98981.80
2024-03-18T15:45:12.520Z,98981.40
2024-03-18T15:48:05.808Z,98987.20
2024-03-18T15:50:59.182Z,98989.00
2024-03-18T15:53:52.385Z,98992.80
2024-03-18T15:56:54.835Z,98995.40
2024-03-18T15:59:54.352Z,98993.60
2024-03-18T16:02:50.960Z,98996.60
2024-03-18T16:05:44.295Z,99000.20
2024-03-18T16:08:40.540Z,98998.40
2024-03-18T16:11:39.927Z,99000.80
2024-03-18T16:14:33.587Z,99005.00
2024-03-18T16:17:26.544Z,99002.40
2024-03-18T16:20:19.942Z,98998.80
2024-03-18T16:23:13.151Z,99006.00
2024-03-18T16:26:06.855Z,99003.80
2024-03-18T16:28:59.637Z,99002.60
2024-03-18T16:31:52.948Z,99008.00
2024-03-18T16:34:45.860Z,99010.40
2024-03-18T16:37:38.936Z,99011.00
2024-03-18T16:40:31.968Z,99015.20
2024-03-18T16:43:25.136Z,99021.60
2024-03-18T16:46:17.862Z,99024.80
2024-03-18T16:49:11.000Z,99027.20
2024-03-18T16:52:04.377Z,99026.80
2024-03-18T16:54:57.283Z,99029.00
2024-03-18T16:57:50.266Z,99029.40
2024-03-18T17:00:45.077Z,99028.60
2024-03-18T17:03:38.271Z,99028.40
2024-03-18T17:06:31.100Z,99031.60
2024-03-18T17:09:24.175Z,99028.40
2024-03-18T17:12:17.296Z,99029.60
2024-03-18T17:15:11.981Z,99029.20
2024-03-18T17:18:05.980Z,99031.60
2024-03-18T17:20:59.400Z,99034.60
2024-03-18T17:23:54.611Z,99038.20
2024-03-18T17:26:47.812Z,99035.60
2024-03-18T17:29:41.381Z,99036.00
2024-03-18T17:32:34.195Z,99039.40
2024-03-18T17:35:44.967Z,99039.00
2024-03-18T17:38:41.145Z,99042.60
2024-03-18T17:41:34.195Z,99043.00
2024-03-18T17:44:27.922Z,99040.80
2024-03-18T17:47:21.156Z,99047.40
2024-03-18T17:50:14.981Z,99050.20
2024-03-18T17:53:07.887Z,99053.40
2024-03-18T17:56:01.190Z,99057.80
2024-03-18T17:58:54.356Z,99060.60
2024-03-18T18:01:47.263Z,99060.20
2024-03-18T18:04:40.481Z,99064.00
2024-03-18T18:07:33.404Z,99067.00
2024-03-18T18:10:26.772Z,99072.00
2024-03-18T18:13:19.739Z,99071.40
2024-03-18T18:16:14.130Z,99073.60
2024-03-18T18:19:07.310Z,99076.40
2024-03-18T18:22:00.599Z,99073.40
2024-03-18T18:24:58.369Z,99076.40
2024-03-18T18:27:53.598Z,99079.80
2024-03-18T18:30:46.581Z,99078.40
2024-03-18T18:33:40.310Z,99077.60
2024-03-18T18:36:33.592Z,99080.80
2024-03-18T18:39:27.217Z,99082.80
2024-03-18T18:42:20.099Z,99083.80
2024-03-18T18:45:14.642Z,99085.80
2024-03-18T18:48:09.555Z,99086.20
2024-03-18T18:51:03.717Z,99089.60
2024-03-18T18:53:56.768Z,99084.00
2024-03-18T18:56:49.702Z,99085.20
2024-03-18T18:59:43.394Z,99085.20
2024-03-18T19:02:37.169Z,99084.00
2024-03-18T19:05:31.486Z,99086.20
2024-03-18T19:08:24.526Z,99079.00
2024-03-18T19:11:17.544Z,99087.40
2024-03-18T19:14:13.954Z,99084.00
2024-03-18T19:17:08.358Z,99087.20
2024-03-18T19:20:01.610Z,99082.60
2024-03-18T19:22:54.835Z,99088.20
2024-03-18T19:25:54.578Z,99084.20
2024-03-18T19:28:48.878Z,99087.00
2024-03-18T19:31:43.442Z,99091.80
2024-03-18T19:34:36.671Z,99091.00
2024-03-18T19:37:30.190Z,99092.20
2024-03-18T19:40:26.323Z,99093.20
2024-03-18T19:43:21.873Z,99090.60
2024-03-18T19:46:16.041Z,99090.40
2024-03-18T19:49:09.016Z,99092.20
2024-03-18T19:52:01.967Z,99092.20
2024-03-18T19:54:55.068Z,99096.40
2024-03-18T19:57:49.108Z,99100.60
2024-03-18T20:00:42.054Z,99099.80
2024-03-18T20:03:35.352Z,99101.40
2024-03-18T20:06:28.958Z,99103.00
2024-03-18T20:09:22.245Z,99108.20
2024-03-18T20:12:15.414Z,99105.20
2024-03-18T20:15:12.791Z,99107.20
2024-03-18T20:18:06.601Z,99108.40
2024-03-18T20:21:00.080Z,99106.60
2024-03-18T20:23:52.985Z,99106.60
2024-03-18T20:26:47.152Z,99106.40
2024-03-18T20:29:40.221Z,99108.80
2024-03-18T20:32:32.836Z,99106.60
2024-03-18T20:35:26.218Z,99108.00
2024-03-18T20:38:20.649Z,99103.20
2024-03-18T20:41:14.324Z,99105.40
2024-03-18T20:44:07.243Z,99105.80
2024-03-18T20:47:05.199Z,99104.60
2024-03-18T20:49:58.115Z,99106.40
2024-03-18T20:52:51.809Z,99105.20
2024-03-18T20:55:48.208Z,99109.00
2024-03-18T20:58:41.595Z,99111.00
2024-03-18T21:01:35.520Z,99112.80
2024-03-18T21:04:30.676Z,99113.40
2024-03-18T21:07:24.130Z,99115.20
2024-03-18T21:10:19.100Z,99111.40
2024-03-18T21:13:12.156Z,99110.00
2024-03-18T21:16:08.559Z,99109.60
2024-03-18T21:19:01.731Z,99107.60
2024-03-18T21:21:54.698Z,99111.40
2024-03-18T21:24:47.807Z,99113.40
2024-03-18T21:27:41.307Z,99113.80
2024-03-18T21:30:34.082Z,99106.60
2024-03-18T21:33:27.635Z,99109.80
2024-03-18T21:36:20.205Z,99112.20
2024-03-18T21:39:14.698Z,99109.20
2024-03-18T21:42:08.224Z,99108.60
2024-03-18T21:45:01.261Z,99107.40
2024-03-18T21:47:54.314Z,99107.00
2024-03-18T21:50:48.226Z,99104.60
2024-03-18T21:53:41.998Z,99107.80
2024-03-18T21:56:34.584Z,99106.60
2024-03-18T21:59:28.330Z,99109.60
2024-03-18T22:02:21.137Z,99108.80
2024-03-18T22:05:14.463Z,99109.20
2024-03-18T22:08:09.340Z,99111.40
2024-03-18T22:11:02.838Z,99113.20
2024-03-18T22:13:55.961Z,99114.80
2024-03-18T22:16:48.491Z,99118.40
2024-03-18T22:19:41.015Z,99117.20
2024-03-18T22:22:35.905Z,99120.40
2024-03-18T22:25:28.850Z,99118.20
2024-03-18T22:28:22.009Z,99120.20
2024-03-18T22:31:19.822Z,99121.20
2024-03-18T22:34:13.604Z,99121.20
2024-03-18T22:37:07.162Z,99114.00
2024-03-18T22:39:59.908Z,99118.20
2024-03-18T22:42:52.690Z,99117.00
2024-03-18T22:45:46.442Z,99113.00
2024-03-18T22:48:39.546Z,99113.80
2024-03-18T22:51:33.635Z,99111.00
2024-03-18T22:54:26.472Z,99111.00
2024-03-18T22:57:19.666Z,99113.00
2024-03-18T23:00:18.834Z,99110.00
2024-03-18T23:03:14.541Z,99110.40
2024-03-18T23:06:07.988Z,99110.00
2024-03-18T23:09:01.070Z,99116.40
2024-03-18T23:11:53.548Z,99116.60
2024-03-18T23:14:46.395Z,99115.60
2024-03-18T23:17:39.362Z,99117.00
2024-03-18T23:20:32.770Z,99120.00
2024-03-18T23:23:25.965Z,99115.20
2024-03-18T23:26:19.176Z,99115.40
2024-03-18T23:29:13.491Z,99116.80
2024-03-18T23:32:07.677Z,99123.00
2024-03-18T23:35:00.659Z,99121.60
2024-03-18T23:37:53.864Z,99125.00
2024-03-18T23:40:49.550Z,99125.80
2024-03-18T23:43:42.620Z,99128.20
2024-03-18T23:46:36.948Z,99124.80
2024-03-18T23:49:30.077Z,99132.40
2024-03-18T23:52:23.122Z,99127.80
2024-03-18T23:55:16.158Z,99133.40
2024-03-18T23:58:10.196Z,99131.60
